Time;durP1;ratioP1;P1;durP2;ratioP2;P2;SDS_P1;SDS_P2;PMS_P1;PMS_P2;Temp;Humidity;BMP_temperature;BMP_pressure;BME280_temperature;BME280_humidity;BME280_pressure;Samples;Min_cycle;Max_cycle;Signal;HPM_P1;HPM_P2
2023/05/11 00:01:24;;;;;;;115.27;38.10;;;11.30;92.70;;;;;;5013839;28;20192;-88
2023/05/11 00:03:50;;;;;;;95.60;37.60;;;11.30;92.90;;;;;;5013708;28;20525;-88
2023/05/11 00:06:15;;;;;;;71.70;33.63;;;11.30;93.10;;;;;;5013538;28;20554;-89
2023/05/11 00:08:41;;;;;;;63.50;32.80;;;11.40;93.10;;;;;;5013558;28;20185;-88
2023/05/11 00:11:07;;;;;;;69.63;33.63;;;11.50;93.20;;;;;;5013825;28;20216;-88
2023/05/11 00:13:33;;;;;;;104.50;34.30;;;11.50;93.20;;;;;;5013359;28;20201;-88
2023/05/11 00:15:58;;;;;;;72.00;31.50;;;11.50;93.10;;;;;;5013930;28;20647;-89
2023/05/11 00:18:24;;;;;;;52.07;30.23;;;11.60;93.20;;;;;;5013786;28;20173;-88
2023/05/11 00:20:49;;;;;;;50.73;27.90;;;11.50;93.10;;;;;;5013669;28;20618;-88
2023/05/11 00:23:15;;;;;;;54.37;26.80;;;11.60;93.10;;;;;;5012318;28;20182;-89
2023/05/11 00:25:40;;;;;;;45.20;27.13;;;11.40;92.90;;;;;;5012461;28;20639;-88
2023/05/11 00:28:06;;;;;;;50.23;26.90;;;11.40;93.00;;;;;;5013514;28;20667;-88
2023/05/11 00:30:32;;;;;;;89.67;27.07;;;11.30;92.90;;;;;;5013587;28;20744;-88
2023/05/11 00:32:57;;;;;;;70.20;26.50;;;11.30;92.90;;;;;;5013362;28;20170;-88
2023/05/11 00:35:23;;;;;;;69.07;28.50;;;11.10;92.90;;;;;;5012155;28;20205;-88
2023/05/11 00:37:49;;;;;;;56.60;26.73;;;11.20;93.20;;;;;;5013769;28;20170;-88
2023/05/11 00:40:14;;;;;;;48.13;27.07;;;11.30;93.30;;;;;;5012241;28;20193;-89
2023/05/11 00:42:40;;;;;;;46.73;31.13;;;11.30;93.20;;;;;;5013643;28;20173;-88
2023/05/11 00:45:06;;;;;;;50.67;28.83;;;11.30;93.30;;;;;;5012208;28;20177;-89
2023/05/11 00:47:31;;;;;;;50.70;29.77;;;11.40;93.20;;;;;;5013655;28;20173;-88
2023/05/11 00:49:57;;;;;;;59.67;27.90;;;11.30;93.10;;;;;;5013851;28;20203;-88
2023/05/11 00:52:23;;;;;;;57.57;27.77;;;11.20;93.00;;;;;;5012040;28;20221;-88
2023/05/11 00:54:49;;;;;;;51.07;26.90;;;11.10;93.30;;;;;;5012489;28;20779;-88
2023/05/11 00:57:16;;;;;;;36.70;28.23;;;11.20;93.40;;;;;;5017266;28;20197;-88
2023/05/11 00:59:41;;;;;;;32.47;26.10;;;11.20;93.50;;;;;;5015728;28;20204;-88
2023/05/11 01:02:07;;;;;;;46.83;25.60;;;11.20;93.50;;;;;;5016833;28;20225;-89
2023/05/11 01:04:33;;;;;;;45.50;24.63;;;11.30;93.50;;;;;;5016820;28;20200;-89
2023/05/11 01:07:18;;;;;;;36.03;24.00;;;11.20;93.40;;;;;;5017126;28;20173;-88
2023/05/11 01:09:49;;;;;;;36.27;24.50;;;11.20;93.40;;;;;;5016957;28;20261;-88
2023/05/11 01:12:31;;;;;;;36.93;23.97;;;11.20;93.30;;;;;;5016294;28;20617;-88
2023/05/11 01:15:13;;;;;;;36.47;26.57;;;11.20;93.40;;;;;;5016680;28;20272;-88
2023/05/11 01:17:48;;;;;;;37.87;26.37;;;11.20;93.40;;;;;;5016570;28;20166;-89
2023/05/11 01:20:25;;;;;;;40.63;28.43;;;11.20;93.40;;;;;;5016711;28;20219;-88
2023/05/11 01:23:15;;;;;;;44.40;28.63;;;11.30;93.30;;;;;;5016864;28;20185;-88
2023/05/11 01:26:05;;;;;;;44.93;28.47;;;11.40;93.30;;;;;;5016567;28;20162;-89
2023/05/11 01:28:46;;;;;;;36.67;25.90;;;11.30;93.20;;;;;;5015579;28;20177;-89
2023/05/11 01:31:14;;;;;;;39.10;28.30;;;11.40;93.20;;;;;;5016577;28;20204;-89
2023/05/11 01:33:46;;;;;;;38.07;26.33;;;11.50;93.20;;;;;;5016182;28;20205;-89
2023/05/11 01:36:13;;;;;;;41.10;28.13;;;11.50;93.20;;;;;;5015087;28;20165;-89
2023/05/11 01:38:43;;;;;;;39.40;28.53;;;11.50;93.10;;;;;;5016274;28;20252;-89
2023/05/11 01:41:13;;;;;;;37.90;27.23;;;11.60;93.10;;;;;;5016118;28;20217;-89
2023/05/11 01:43:41;;;;;;;43.50;28.90;;;11.50;92.90;;;;;;5016371;28;20576;-89
2023/05/11 01:46:09;;;;;;;38.53;28.17;;;11.60;92.90;;;;;;5016315;28;20636;-89
2023/05/11 01:48:38;;;;;;;37.57;27.87;;;11.60;92.80;;;;;;5015775;28;20231;-89
2023/05/11 01:51:04;;;;;;;36.87;26.33;;;11.70;92.80;;;;;;5015868;28;20239;-89
2023/05/11 01:53:33;;;;;;;34.33;27.47;;;11.60;92.60;;;;;;5015855;28;20701;-89
2023/05/11 01:56:01;;;;;;;45.73;30.70;;;11.60;92.60;;;;;;5016354;28;20182;-89
2023/05/11 01:58:27;;;;;;;42.33;24.60;;;11.70;92.40;;;;;;5016115;28;20180;-90
2023/05/11 02:00:54;;;;;;;41.60;24.97;;;11.60;92.30;;;;;;5015995;28;20625;-89
2023/05/11 02:03:21;;;;;;;38.00;24.97;;;11.50;92.30;;;;;;5015801;28;20170;-89
2023/05/11 02:05:49;;;;;;;43.27;26.20;;;11.50;92.20;;;;;;5014141;28;20182;-89
2023/05/11 02:08:16;;;;;;;42.67;25.93;;;11.40;92.30;;;;;;5014446;28;20178;-89
2023/05/11 02:10:44;;;;;;;44.33;26.80;;;11.30;92.40;;;;;;5015710;28;20197;-89
2023/05/11 02:13:11;;;;;;;43.40;24.63;;;11.30;92.50;;;;;;5015461;28;20170;-89
2023/05/11 02:15:40;;;;;;;41.20;25.50;;;11.30;92.60;;;;;;5015504;28;20648;-89
2023/05/11 02:18:08;;;;;;;35.13;22.37;;;11.30;92.60;;;;;;5015735;28;20170;-89
2023/05/11 02:20:34;;;;;;;26.13;18.87;;;11.40;92.70;;;;;;5015415;28;20193;-89
2023/05/11 02:23:00;;;;;;;31.03;20.23;;;11.30;92.60;;;;;;5015578;28;20687;-89
2023/05/11 02:25:27;;;;;;;26.83;17.80;;;11.30;92.70;;;;;;5014089;28;20181;-89
2023/05/11 02:27:52;;;;;;;28.87;19.33;;;11.30;92.70;;;;;;5015216;28;20177;-89
2023/05/11 02:30:18;;;;;;;29.33;19.07;;;11.30;92.70;;;;;;5015164;28;20201;-89
2023/05/11 02:32:49;;;;;;;36.33;23.33;;;11.40;92.70;;;;;;5013972;28;20184;-89
2023/05/11 02:35:22;;;;;;;47.17;29.03;;;11.50;92.90;;;;;;5015117;28;20193;-89
2023/05/11 02:37:49;;;;;;;52.03;31.67;;;11.50;92.70;;;;;;5013954;28;20180;-89
2023/05/11 02:40:24;;;;;;;53.63;30.10;;;11.50;92.80;;;;;;5015032;28;20220;-90
2023/05/11 02:42:55;;;;;;;49.83;31.37;;;11.50;92.80;;;;;;5015021;28;20157;-89
2023/05/11 02:45:22;;;;;;;48.80;31.30;;;11.50;92.70;;;;;;5015268;28;20188;-89
2023/05/11 02:47:53;;;;;;;41.17;28.93;;;11.50;92.70;;;;;;5014912;28;20177;-89
2023/05/11 02:50:21;;;;;;;36.93;26.07;;;11.50;92.70;;;;;;5014667;28;20300;-89
2023/05/11 02:52:48;;;;;;;30.13;23.97;;;11.50;92.70;;;;;;5014708;28;20169;-89
2023/05/11 02:55:16;;;;;;;34.67;24.93;;;11.50;92.70;;;;;;5013754;28;20227;-90
2023/05/11 02:57:43;;;;;;;36.27;24.97;;;11.50;92.70;;;;;;5014695;28;20166;-89
2023/05/11 03:00:10;;;;;;;37.03;26.53;;;11.50;92.70;;;;;;5014573;28;20201;-90
2023/05/11 03:02:35;;;;;;;36.97;26.43;;;11.60;92.60;;;;;;5014600;28;20216;-89
2023/05/11 03:05:01;;;;;;;37.77;26.63;;;11.60;92.60;;;;;;5014884;28;20540;-90
2023/05/11 03:07:27;;;;;;;42.50;28.53;;;11.60;92.40;;;;;;5014501;28;20181;-89
2023/05/11 03:09:52;;;;;;;46.00;30.23;;;11.60;92.40;;;;;;5014458;28;20185;-89
2023/05/11 03:12:20;;;;;;;40.43;28.23;;;11.50;92.30;;;;;;5014374;28;20201;-89
2023/05/11 03:14:47;;;;;;;36.90;27.70;;;11.50;92.30;;;;;;5014553;28;20189;-89
2023/05/11 03:17:14;;;;;;;32.43;25.43;;;11.40;92.20;;;;;;5013895;28;20173;-89
2023/05/11 03:19:41;;;;;;;35.10;24.73;;;11.30;92.30;;;;;;5014418;28;20216;-89
2023/05/11 03:22:08;;;;;;;30.67;24.60;;;11.30;92.40;;;;;;5014262;28;20197;-89
2023/05/11 03:24:34;;;;;;;31.33;23.97;;;11.30;92.50;;;;;;5014772;28;20181;-89
2023/05/11 03:27:02;;;;;;;33.70;24.23;;;11.30;92.50;;;;;;5013102;28;20188;-90
2023/05/11 03:29:28;;;;;;;32.47;23.90;;;11.40;92.60;;;;;;5014549;28;20264;-89
2023/05/11 03:31:54;;;;;;;34.03;23.93;;;11.30;92.50;;;;;;5014018;28;20197;-89
2023/05/11 03:34:20;;;;;;;31.03;23.50;;;11.30;92.50;;;;;;5012909;28;20208;-89
2023/05/11 03:36:49;;;;;;;34.03;24.83;;;11.30;92.60;;;;;;5012997;28;20181;-90
2023/05/11 03:39:15;;;;;;;33.67;23.47;;;11.40;92.60;;;;;;5014025;28;20169;-89
2023/05/11 03:41:43;;;;;;;30.17;23.13;;;11.30;92.50;;;;;;5013937;28;20248;-89
2023/05/11 03:44:10;;;;;;;29.23;23.50;;;11.30;92.50;;;;;;5013826;28;20174;-89
2023/05/11 03:46:39;;;;;;;35.97;24.37;;;11.20;92.50;;;;;;5013872;28;20177;-89
2023/05/11 03:49:06;;;;;;;30.80;23.37;;;11.20;92.60;;;;;;5013956;28;20240;-90
2023/05/11 03:51:33;;;;;;;31.47;23.37;;;11.20;92.70;;;;;;5012532;28;20344;-89
2023/05/11 03:53:59;;;;;;;32.77;20.70;;;11.20;92.80;;;;;;5013642;28;20203;-89
2023/05/11 03:56:25;;;;;;;31.23;19.27;;;11.20;92.90;;;;;;5013758;28;20599;-89
2023/05/11 03:58:52;;;;;;;30.57;19.43;;;11.30;93.00;;;;;;5013786;28;20168;-89
2023/05/11 04:01:18;;;;;;;33.17;19.50;;;11.30;93.00;;;;;;5013643;28;20225;-89
2023/05/11 04:03:51;;;;;;;35.57;20.47;;;11.30;93.00;;;;;;5013597;28;20204;-90
2023/05/11 04:06:17;;;;;;;37.27;22.40;;;11.30;93.00;;;;;;5014159;28;20280;-89
2023/05/11 04:08:43;;;;;;;36.20;21.27;;;11.30;93.00;;;;;;5013583;28;20181;-89
2023/05/11 04:11:09;;;;;;;38.37;24.20;;;11.30;93.00;;;;;;5013444;28;20199;-89
2023/05/11 04:13:35;;;;;;;35.07;22.40;;;11.20;93.00;;;;;;5012303;28;20671;-90
2023/05/11 04:16:00;;;;;;;43.40;23.13;;;11.20;93.00;;;;;;5013486;28;20227;-89
2023/05/11 04:18:26;;;;;;;42.00;24.70;;;11.20;93.10;;;;;;5013623;28;20180;-89
2023/05/11 04:20:52;;;;;;;43.67;23.13;;;11.20;93.10;;;;;;5012212;28;20205;-89
2023/05/11 04:23:17;;;;;;;47.37;25.83;;;11.20;93.20;;;;;;5012330;28;20174;-89
2023/05/11 04:25:43;;;;;;;43.13;24.00;;;11.20;93.20;;;;;;5013426;28;20539;-89
2023/05/11 04:28:08;;;;;;;48.03;25.60;;;11.20;93.30;;;;;;5012074;28;20181;-89
2023/05/11 04:30:34;;;;;;;51.57;28.23;;;11.20;93.40;;;;;;5016966;28;20193;-89
2023/05/11 04:32:59;;;;;;;47.03;28.03;;;11.20;93.40;;;;;;5016203;28;20177;-89
2023/05/11 04:35:25;;;;;;;44.83;29.17;;;11.20;93.50;;;;;;5016218;28;20698;-89
2023/05/11 04:37:50;;;;;;;48.07;29.87;;;11.20;93.50;;;;;;5017247;28;20176;-89
2023/05/11 04:40:16;;;;;;;53.37;28.83;;;11.20;93.50;;;;;;5016075;28;20255;-89
2023/05/11 04:42:41;;;;;;;43.10;27.70;;;11.30;93.60;;;;;;5017200;28;20184;-89
2023/05/11 04:45:07;;;;;;;46.70;28.83;;;11.30;93.60;;;;;;5017213;28;20288;-89
2023/05/11 04:47:33;;;;;;;38.50;26.97;;;11.30;93.50;;;;;;5017403;28;20181;-89
2023/05/11 04:49:59;;;;;;;38.67;25.77;;;11.20;93.50;;;;;;5016930;28;20197;-89
2023/05/11 04:52:25;;;;;;;41.07;26.57;;;11.20;93.50;;;;;;5017305;28;20205;-89
2023/05/11 04:54:51;;;;;;;45.17;28.50;;;11.20;93.50;;;;;;5016996;28;20291;-89
2023/05/11 04:57:17;;;;;;;39.63;25.40;;;11.20;93.60;;;;;;5017326;28;20216;-89
2023/05/11 04:59:43;;;;;;;39.03;24.53;;;11.20;93.60;;;;;;5016871;28;20173;-89
2023/05/11 05:02:08;;;;;;;30.63;22.37;;;11.20;93.60;;;;;;5016892;28;20746;-89
2023/05/11 05:04:34;;;;;;;35.13;23.53;;;11.30;93.60;;;;;;5015639;28;20280;-89
2023/05/11 05:06:59;;;;;;;35.50;23.73;;;11.30;93.60;;;;;;5016822;28;20182;-89
2023/05/11 05:09:25;;;;;;;34.23;20.63;;;11.30;93.50;;;;;;5016725;28;20177;-89
2023/05/11 05:11:50;;;;;;;30.67;21.60;;;11.30;93.50;;;;;;5016639;28;20232;-89
2023/05/11 05:14:16;;;;;;;29.67;21.67;;;11.30;93.50;;;;;;5016875;28;20288;-89
2023/05/11 05:16:41;;;;;;;30.13;22.10;;;11.30;93.40;;;;;;5016652;28;20261;-89
2023/05/11 05:19:08;;;;;;;30.13;23.30;;;11.40;93.40;;;;;;5016645;28;20186;-89
2023/05/11 05:21:34;;;;;;;29.10;21.47;;;11.40;93.50;;;;;;5015210;28;20197;-89
2023/05/11 05:24:00;;;;;;;24.07;20.57;;;11.40;93.40;;;;;;5015212;28;20178;-89
2023/05/11 05:26:26;;;;;;;19.13;17.13;;;11.50;93.40;;;;;;5015257;28;20185;-89
2023/05/11 05:28:51;;;;;;;19.13;17.33;;;11.50;93.30;;;;;;5015263;28;20185;-89
2023/05/11 05:31:17;;;;;;;19.60;17.60;;;11.50;93.20;;;;;;5016352;28;20676;-89
2023/05/11 05:33:42;;;;;;;19.63;17.53;;;11.30;92.90;;;;;;5016560;28;20232;-89
2023/05/11 05:36:08;;;;;;;20.37;18.47;;;11.30;92.80;;;;;;5015119;28;20256;-88
2023/05/11 05:38:33;;;;;;;20.83;18.73;;;11.30;92.80;;;;;;5016527;28;20236;-89
2023/05/11 05:40:59;;;;;;;20.90;18.70;;;11.30;92.70;;;;;;5015389;28;20197;-89
2023/05/11 05:43:25;;;;;;;19.97;17.97;;;11.40;92.80;;;;;;5016394;28;20166;-89
2023/05/11 05:45:50;;;;;;;22.47;19.37;;;11.40;92.70;;;;;;5015003;28;20216;-89
2023/05/11 05:48:16;;;;;;;19.70;17.57;;;11.40;92.60;;;;;;5015946;28;20169;-89
2023/05/11 05:50:41;;;;;;;21.33;19.00;;;11.40;92.70;;;;;;5014880;28;20574;-88
2023/05/11 05:53:07;;;;;;;22.47;19.70;;;11.50;92.70;;;;;;5016191;28;20180;-88
2023/05/11 05:55:32;;;;;;;20.93;18.43;;;11.50;92.80;;;;;;5014835;28;20585;-89
2023/05/11 05:57:58;;;;;;;21.23;19.03;;;11.50;92.80;;;;;;5014849;28;20180;-89
2023/05/11 06:00:24;;;;;;;23.53;20.33;;;11.50;92.80;;;;;;5015875;28;20189;-89
2023/05/11 06:02:49;;;;;;;22.27;19.97;;;11.50;92.80;;;;;;5015843;28;20177;-89
2023/05/11 06:05:15;;;;;;;23.77;20.30;;;11.50;92.80;;;;;;5014489;28;20186;-89
2023/05/11 06:07:40;;;;;;;23.50;19.40;;;11.40;92.80;;;;;;5014554;28;20184;-89
2023/05/11 06:10:06;;;;;;;23.43;19.40;;;11.50;92.90;;;;;;5014391;28;20236;-89
2023/05/11 06:12:31;;;;;;;21.23;18.70;;;11.50;93.00;;;;;;5015699;28;20535;-88
2023/05/11 06:14:57;;;;;;;25.53;20.80;;;11.50;92.90;;;;;;5014262;28;20695;-88
2023/05/11 06:17:22;;;;;;;27.30;20.33;;;11.40;92.90;;;;;;5015508;28;20181;-88
2023/05/11 06:19:49;;;;;;;23.53;19.77;;;11.50;93.00;;;;;;5014283;28;20281;-88
2023/05/11 06:22:14;;;;;;;26.87;19.50;;;11.50;93.10;;;;;;5015378;28;20212;-89
2023/05/11 06:24:40;;;;;;;28.23;20.47;;;11.50;93.10;;;;;;5015338;28;20532;-89
2023/05/11 06:27:06;;;;;;;23.27;20.27;;;11.60;93.10;;;;;;5014268;28;20543;-88
2023/05/11 06:29:31;;;;;;;25.27;20.63;;;11.60;93.10;;;;;;5015496;28;20212;-88
2023/05/11 06:31:57;;;;;;;20.67;16.63;;;11.60;93.10;;;;;;5015209;28;20205;-88
2023/05/11 06:34:23;;;;;;;19.17;15.80;;;11.50;93.00;;;;;;5015071;28;20212;-88
2023/05/11 06:36:48;;;;;;;21.03;16.43;;;11.60;93.10;;;;;;5014330;28;20265;-88
2023/05/11 06:39:14;;;;;;;25.03;17.10;;;11.60;93.20;;;;;;5015440;28;20259;-88
2023/05/11 06:41:40;;;;;;;24.30;17.43;;;11.60;93.10;;;;;;5013749;28;20252;-88
2023/05/11 06:44:05;;;;;;;23.10;17.00;;;11.50;93.10;;;;;;5014570;28;20185;-88
2023/05/11 06:46:31;;;;;;;23.93;18.20;;;11.50;93.10;;;;;;5013717;28;20644;-88
2023/05/11 06:48:56;;;;;;;24.27;17.50;;;11.50;93.20;;;;;;5013650;28;20197;-88
2023/05/11 06:51:22;;;;;;;24.80;18.00;;;11.50;93.20;;;;;;5013951;28;20291;-89
2023/05/11 06:53:48;;;;;;;29.33;19.23;;;11.50;93.30;;;;;;5014205;28;20193;-87
2023/05/11 06:56:14;;;;;;;27.40;18.57;;;11.60;93.30;;;;;;5013878;28;20232;-88
2023/05/11 06:58:40;;;;;;;27.03;22.60;;;11.60;93.40;;;;;;5014782;28;20174;-88
2023/05/11 07:01:06;;;;;;;31.53;22.70;;;11.70;93.40;;;;;;5014743;28;20204;-89
2023/05/11 07:03:33;;;;;;;32.73;22.80;;;11.70;93.50;;;;;;5015596;28;20256;-89
2023/05/11 07:05:58;;;;;;;31.13;22.23;;;11.70;93.50;;;;;;5014318;28;20177;-88
2023/05/11 07:08:24;;;;;;;31.67;22.70;;;11.80;93.50;;;;;;5013556;28;20235;-88
2023/05/11 07:10:50;;;;;;;29.23;22.47;;;11.80;93.50;;;;;;5013361;28;20201;-88
2023/05/11 07:13:16;;;;;;;29.77;22.03;;;11.90;93.40;;;;;;5014403;28;20173;-87
2023/05/11 07:15:41;;;;;;;32.60;23.00;;;11.90;93.40;;;;;;5014600;28;20662;-88
2023/05/11 07:18:07;;;;;;;31.23;21.93;;;12.00;93.50;;;;;;5014633;28;20659;-88
2023/05/11 07:20:35;;;;;;;29.67;21.40;;;11.90;93.30;;;;;;5014341;28;20236;-88
2023/05/11 07:23:01;;;;;;;27.97;22.30;;;11.90;93.20;;;;;;5014323;28;20166;-88
2023/05/11 07:25:26;;;;;;;32.63;23.77;;;11.80;93.10;;;;;;5013071;28;20361;-88
2023/05/11 07:27:52;;;;;;;31.73;24.17;;;11.80;93.10;;;;;;5013023;28;20639;-88
2023/05/11 07:30:18;;;;;;;33.10;23.43;;;11.80;93.10;;;;;;5014085;28;20189;-88
2023/05/11 07:32:43;;;;;;;33.23;24.43;;;11.90;93.10;;;;;;5012849;28;20265;-88
2023/05/11 07:35:09;;;;;;;29.83;22.53;;;11.90;93.00;;;;;;5013969;28;20197;-88
2023/05/11 07:37:35;;;;;;;30.00;23.30;;;12.00;93.10;;;;;;5014303;28;20176;-89
2023/05/11 07:40:00;;;;;;;25.23;21.27;;;12.00;93.00;;;;;;5013971;28;20200;-88
2023/05/11 07:42:26;;;;;;;29.57;21.23;;;12.00;93.00;;;;;;5014012;28;20224;-88
2023/05/11 07:44:51;;;;;;;26.10;21.53;;;12.20;92.90;;;;;;5014457;28;20173;-88
2023/05/11 07:47:19;;;;;;;28.27;21.43;;;12.20;92.80;;;;;;5013972;28;20212;-88
2023/05/11 07:49:46;;;;;;;28.07;21.77;;;12.20;92.60;;;;;;5013710;28;20192;-88
2023/05/11 07:52:12;;;;;;;27.40;21.17;;;12.20;92.60;;;;;;5012519;28;20201;-89
2023/05/11 07:54:38;;;;;;;31.50;22.57;;;12.20;92.50;;;;;;5013666;28;20671;-88
2023/05/11 07:57:04;;;;;;;29.80;22.37;;;12.30;92.50;;;;;;5012507;28;20177;-88
2023/05/11 07:59:30;;;;;;;34.00;23.27;;;12.30;92.50;;;;;;5014067;28;20545;-88
2023/05/11 08:01:55;;;;;;;35.20;24.00;;;12.40;92.60;;;;;;5013700;28;20194;-88
2023/05/11 08:04:21;;;;;;;31.27;22.60;;;12.40;92.40;;;;;;5013329;28;20170;-88
2023/05/11 08:06:47;;;;;;;37.93;25.93;;;12.50;92.20;;;;;;5013593;28;20240;-88
2023/05/11 08:09:13;;;;;;;29.30;23.13;;;12.40;92.10;;;;;;5012400;28;20208;-88
2023/05/11 08:11:39;;;;;;;32.77;24.20;;;12.40;92.00;;;;;;5013522;28;20569;-88
2023/05/11 08:14:05;;;;;;;37.67;25.50;;;12.40;92.00;;;;;;5013489;28;20204;-88
2023/05/11 08:16:31;;;;;;;38.47;26.30;;;12.50;92.00;;;;;;5013572;28;20169;-88
2023/05/11 08:18:56;;;;;;;38.07;24.40;;;12.50;92.00;;;;;;5013456;28;20172;-88
2023/05/11 08:21:22;;;;;;;35.63;24.77;;;12.50;91.90;;;;;;5012302;28;20193;-88
2023/05/11 08:23:47;;;;;;;35.97;25.00;;;12.50;92.00;;;;;;5013401;28;20227;-88
2023/05/11 08:26:13;;;;;;;35.67;24.47;;;12.70;92.00;;;;;;5013744;28;20177;-88
2023/05/11 08:28:39;;;;;;;34.70;23.60;;;12.60;92.00;;;;;;5013368;28;20228;-88
2023/05/11 08:31:06;;;;;;;37.07;24.20;;;12.70;92.00;;;;;;5013581;28;20189;-88
2023/05/11 08:33:32;;;;;;;34.53;23.83;;;12.80;92.10;;;;;;5013416;28;20640;-87
2023/05/11 08:35:58;;;;;;;35.10;23.53;;;12.80;91.90;;;;;;5012052;28;20235;-88
2023/05/11 08:38:23;;;;;;;35.63;23.43;;;12.80;91.70;;;;;;5012028;28;20201;-88
2023/05/11 08:40:52;;;;;;;37.77;25.40;;;12.80;91.70;;;;;;5012108;28;20217;-87
2023/05/11 08:43:18;;;;;;;34.53;23.97;;;12.80;91.60;;;;;;5013568;28;20169;-88
2023/05/11 08:45:48;;;;;;;38.13;23.50;;;12.90;91.60;;;;;;5011990;28;20200;-88
2023/05/11 08:48:16;;;;;;;33.20;24.17;;;12.90;91.60;;;;;;5011908;28;20635;-87
2023/05/11 08:50:45;;;;;;;32.90;24.50;;;12.90;91.30;;;;;;5013083;28;20272;-88
2023/05/11 08:53:11;;;;;;;37.47;23.83;;;13.00;91.40;;;;;;5013185;28;20232;-88
2023/05/11 08:55:39;;;;;;;32.93;22.73;;;13.00;91.30;;;;;;5011764;28;20701;-87
2023/05/11 08:58:06;;;;;;;31.03;21.23;;;13.10;91.20;;;;;;5013275;28;20258;-88
2023/05/11 09:00:32;;;;;;;32.43;21.93;;;13.20;91.20;;;;;;5013106;28;20185;-88
2023/05/11 09:02:59;;;;;;;33.37;21.53;;;13.20;91.00;;;;;;5011896;28;20174;-88
2023/05/11 09:05:26;;;;;;;32.10;21.20;;;13.30;90.90;;;;;;5013106;28;20170;-87
2023/05/11 09:07:55;;;;;;;30.67;22.80;;;13.20;90.50;;;;;;5011921;28;20247;-88
2023/05/11 09:10:21;;;;;;;34.20;23.20;;;13.30;90.60;;;;;;5012015;28;20245;-88
2023/05/11 09:12:46;;;;;;;31.37;22.37;;;13.30;90.80;;;;;;5013027;28;20216;-88
2023/05/11 09:15:12;;;;;;;30.70;23.13;;;13.30;90.60;;;;;;5013030;28;20237;-88
2023/05/11 09:17:38;;;;;;;31.70;21.93;;;13.30;90.70;;;;;;5015110;28;20185;-88
2023/05/11 09:20:05;;;;;;;31.90;21.17;;;13.40;90.80;;;;;;5015307;28;20188;-88
2023/05/11 09:22:45;;;;;;;32.70;21.90;;;13.40;90.70;;;;;;5016415;28;20264;-88
2023/05/11 09:25:13;;;;;;;32.23;20.70;;;13.50;90.70;;;;;;5015594;28;20178;-88
2023/05/11 09:27:43;;;;;;;26.00;17.80;;;13.60;90.70;;;;;;5016497;28;20177;-88
2023/05/11 09:30:16;;;;;;;25.67;19.30;;;13.70;90.70;;;;;;5016300;28;20307;-89
2023/05/11 09:32:50;;;;;;;23.03;18.33;;;13.80;90.70;;;;;;5015332;28;20272;-88
2023/05/11 09:35:23;;;;;;;26.80;19.83;;;13.70;90.50;;;;;;5016587;28;20189;-88
2023/05/11 09:38:05;;;;;;;25.53;20.37;;;13.70;90.40;;;;;;5014968;28;20165;-89
2023/05/11 09:40:36;;;;;;;22.77;18.03;;;13.80;90.80;;;;;;5014953;28;20196;-88
2023/05/11 09:43:15;;;;;;;20.77;16.90;;;13.80;90.70;;;;;;5014946;28;20169;-88
2023/05/11 09:45:42;;;;;;;19.83;16.63;;;13.80;90.50;;;;;;5016457;28;20165;-90
2023/05/11 09:48:20;;;;;;;21.47;16.40;;;13.80;90.40;;;;;;5015262;28;20666;-90
2023/05/11 09:50:51;;;;;;;20.10;17.17;;;13.80;90.10;;;;;;5015533;28;20205;-89
2023/05/11 09:53:17;;;;;;;21.17;17.53;;;13.80;89.70;;;;;;5014994;28;20177;-88
2023/05/11 09:55:54;;;;;;;19.10;17.20;;;13.80;89.70;;;;;;5014820;28;20355;-87
2023/05/11 09:58:20;;;;;;;21.40;17.97;;;13.80;89.40;;;;;;5015256;28;20523;-87
2023/05/11 10:00:52;;;;;;;20.20;16.53;;;13.90;89.60;;;;;;5015821;28;20189;-87
2023/05/11 10:03:18;;;;;;;18.60;14.93;;;13.90;89.50;;;;;;5015729;28;20224;-87
2023/05/11 10:06:03;;;;;;;20.10;14.10;;;13.90;89.40;;;;;;5014640;28;20178;-89
2023/05/11 10:08:30;;;;;;;15.70;13.43;;;13.90;89.50;;;;;;5014593;28;20670;-87
2023/05/11 10:10:56;;;;;;;18.87;13.83;;;13.90;89.50;;;;;;5016000;28;20698;-87
2023/05/11 10:13:23;;;;;;;17.67;13.43;;;13.90;89.20;;;;;;5015699;28;20201;-88
2023/05/11 10:15:53;;;;;;;17.00;14.17;;;13.90;89.30;;;;;;5014485;28;20554;-89
2023/05/11 10:18:19;;;;;;;17.83;13.83;;;13.90;89.30;;;;;;5014428;28;20169;-89
2023/05/11 10:20:45;;;;;;;21.90;15.97;;;13.80;89.20;;;;;;5014199;28;20197;-88
2023/05/11 10:23:11;;;;;;;19.63;16.07;;;13.80;89.60;;;;;;5014344;28;20173;-89
2023/05/11 10:25:37;;;;;;;19.23;16.47;;;13.90;89.90;;;;;;5014504;28;20181;-88
2023/05/11 10:28:04;;;;;;;18.87;15.63;;;14.00;90.20;;;;;;5014849;28;20521;-88
2023/05/11 10:30:32;;;;;;;21.10;18.87;;;13.90;90.00;;;;;;5014917;28;20725;-88
2023/05/11 10:32:59;;;;;;;21.37;18.67;;;13.90;90.10;;;;;;5014173;28;20632;-88
2023/05/11 10:35:26;;;;;;;23.87;19.33;;;13.90;90.20;;;;;;5013981;28;20629;-88
2023/05/11 10:37:52;;;;;;;26.53;20.50;;;13.90;90.30;;;;;;5014029;28;20178;-88
2023/05/11 10:40:18;;;;;;;25.53;20.07;;;13.90;90.40;;;;;;5014342;28;20201;-88
2023/05/11 10:42:59;;;;;;;22.07;19.57;;;13.90;90.50;;;;;;5014237;28;20723;-88
2023/05/11 10:46:07;;;;;;;27.37;20.80;;;14.00;90.60;;;;;;5014230;28;20188;-89
2023/05/11 10:49:09;;;;;;;23.27;17.83;;;14.10;90.80;;;;;;5013929;28;20180;-89
2023/05/11 10:51:34;;;;;;;20.97;16.17;;;14.10;90.90;;;;;;5014258;28;20204;-88
2023/05/11 10:54:20;;;;;;;27.90;18.67;;;14.10;91.00;;;;;;5013896;28;20255;-89
2023/05/11 10:57:02;;;;;;;28.07;19.37;;;14.20;91.30;;;;;;5013894;28;20228;-89
2023/05/11 10:59:54;;;;;;;26.60;17.33;;;14.20;91.50;;;;;;5013633;28;20264;-89
2023/05/11 11:02:20;;;;;;;27.57;19.13;;;14.20;91.40;;;;;;5005845;28;20185;-89
2023/05/11 11:04:52;;;;;;;24.57;19.53;;;14.20;91.10;;;;;;5015478;28;20177;-91
2023/05/11 11:07:18;;;;;;;25.43;20.87;;;14.10;91.10;;;;;;5014652;28;20184;-90
2023/05/11 11:09:56;;;;;;;25.40;19.80;;;14.10;91.30;;;;;;5014709;28;20173;-90
2023/05/11 11:12:23;;;;;;;27.13;20.80;;;14.20;91.40;;;;;;5014730;28;20173;-90
2023/05/11 11:15:06;;;;;;;27.25;21.40;;;14.20;91.40;;;;;;5014362;28;20319;-90
2023/05/11 11:17:33;;;;;;;23.30;19.40;;;14.20;91.40;;;;;;5014512;28;20204;-89
2023/05/11 11:20:01;;;;;;;24.35;19.48;;;14.20;91.50;;;;;;5013909;28;20208;-90
2023/05/11 11:22:37;;;;;;;24.85;19.63;;;14.10;91.50;;;;;;5014362;28;20600;-90
2023/05/11 11:25:13;;;;;;;25.35;20.25;;;14.20;91.80;;;;;;5014633;28;20169;-90
2023/05/11 11:27:44;;;;;;;22.57;19.90;;;14.20;91.60;;;;;;5014330;28;20157;-89
2023/05/11 11:30:27;;;;;;;27.27;22.10;;;14.30;91.70;;;;;;5014236;28;20173;-89
2023/05/11 11:33:14;;;;;;;25.53;21.40;;;14.30;91.70;;;;;;5013695;28;20213;-89
2023/05/11 11:35:40;;;;;;;31.02;22.13;;;14.40;91.80;;;;;;5014081;28;20207;-89
2023/05/11 11:38:10;;;;;;;24.67;19.25;;;14.40;91.80;;;;;;5012683;28;20551;-89
2023/05/11 11:40:42;;;;;;;27.67;19.55;;;14.40;91.80;;;;;;5013806;28;20198;-89
2023/05/11 11:43:18;;;;;;;27.17;19.50;;;14.40;91.70;;;;;;5014576;28;20174;-89
2023/05/11 11:45:56;;;;;;;22.87;17.30;;;14.50;91.80;;;;;;5012888;28;20173;-89
2023/05/11 11:48:39;;;;;;;26.10;19.80;;;14.40;91.40;;;;;;5014460;28;20153;-88
2023/05/11 11:51:07;;;;;;;28.27;21.33;;;14.50;91.60;;;;;;5013286;28;20197;-89
2023/05/11 11:53:44;;;;;;;30.23;21.38;;;14.70;91.70;;;;;;5013804;28;20177;-89
2023/05/11 11:56:13;;;;;;;31.15;21.08;;;14.60;91.50;;;;;;5013905;28;20156;-90
2023/05/11 11:58:44;;;;;;;31.73;22.88;;;14.60;91.50;;;;;;5013751;28;20170;-89
2023/05/11 12:01:20;;;;;;;27.58;20.83;;;14.70;91.60;;;;;;5013868;28;20234;-90
2023/05/11 12:04:11;;;;;;;19.23;15.05;;;14.70;91.60;;;;;;5013792;28;20650;-89
2023/05/11 12:06:38;;;;;;;20.42;15.77;;;14.80;91.50;;;;;;4982653;28;20184;-90
2023/05/11 12:09:04;;;;;;;23.77;16.02;;;14.80;91.00;;;;;;5013633;28;20179;-89
2023/05/11 12:11:31;;;;;;;21.02;15.80;;;14.70;90.70;;;;;;5014174;28;20556;-89
2023/05/11 12:13:58;;;;;;;25.23;16.45;;;14.80;90.80;;;;;;5013699;28;20679;-89
2023/05/11 12:16:23;;;;;;;25.15;18.20;;;14.80;90.70;;;;;;5013737;28;20174;-89
2023/05/11 12:18:57;;;;;;;24.50;17.40;;;14.80;90.60;;;;;;5012723;28;20192;-90
2023/05/11 12:21:26;;;;;;;22.70;17.25;;;14.80;90.50;;;;;;5013464;28;20217;-90
2023/05/11 12:23:53;;;;;;;23.55;17.33;;;15.00;90.80;;;;;;5013557;28;20174;-89
2023/05/11 12:26:23;;;;;;;24.10;17.45;;;14.90;90.10;;;;;;5013724;28;20176;-90
2023/05/11 12:28:49;;;;;;;25.58;17.90;;;14.80;89.70;;;;;;5013398;28;20542;-90
2023/05/11 12:31:18;;;;;;;28.33;20.85;;;14.90;90.00;;;;;;5013393;28;20587;-90